Time;durP1;ratioP1;P1;durP2;ratioP2;P2;SDS_P1;SDS_P2;PMS_P1;PMS_P2;Temp;Humidity;BMP_temperature;BMP_pressure;BME280_temperature;BME280_humidity;BME280_pressure;Samples;Min_cycle;Max_cycle;Signal;HPM_P1;HPM_P2
2022/08/31 00:05:18;;;;;;;0.43;0.40;;;17.90;51.70;;;;;;4894151;29;20235;-40
2022/08/31 00:07:49;;;;;;;0.52;0.52;;;18.00;51.70;;;;;;4896391;29;20201;-38
2022/08/31 00:10:21;;;;;;;0.52;0.52;;;18.00;51.50;;;;;;4912076;29;20192;-37
2022/08/31 00:12:52;;;;;;;0.40;0.40;;;18.10;51.60;;;;;;4907875;29;20218;-41
2022/08/31 00:15:24;;;;;;;0.52;0.50;;;18.10;51.70;;;;;;4895688;29;20229;-49
2022/08/31 00:17:57;;;;;;;0.50;0.50;;;18.10;51.80;;;;;;4897023;29;20216;-37
2022/08/31 00:20:29;;;;;;;0.93;0.50;;;18.10;52.20;;;;;;4895450;29;20205;-43
2022/08/31 00:23:00;;;;;;;1.25;0.40;;;18.20;52.10;;;;;;4896001;29;20197;-54
2022/08/31 00:25:30;;;;;;;0.35;0.30;;;18.20;51.90;;;;;;4895788;29;20235;-47
2022/08/31 00:28:01;;;;;;;0.30;0.30;;;18.20;51.70;;;;;;4896407;29;20229;-42
2022/08/31 00:30:32;;;;;;;0.57;0.30;;;18.30;51.60;;;;;;4895086;29;20205;-39
2022/08/31 00:33:05;;;;;;;0.30;0.30;;;18.30;51.50;;;;;;4895712;29;20196;-43
2022/08/31 00:35:37;;;;;;;0.30;0.30;;;18.30;51.50;;;;;;4895644;29;20231;-40
2022/08/31 00:38:08;;;;;;;0.20;0.20;;;18.30;51.40;;;;;;4895747;29;20196;-44
2022/08/31 00:40:39;;;;;;;0.40;0.40;;;18.40;51.30;;;;;;4895646;29;20205;-36
2022/08/31 00:45:51;;;;;;;0.30;0.30;;;18.40;51.20;;;;;;4892725;29;20232;-34
2022/08/31 00:48:24;;;;;;;0.30;0.30;;;18.50;51.10;;;;;;4894718;29;20230;-44
2022/08/31 00:50:55;;;;;;;1.98;0.30;;;18.50;51.10;;;;;;4894700;29;20201;-34
2022/08/31 00:53:26;;;;;;;0.20;0.20;;;18.50;51.10;;;;;;4894728;29;20212;-33
2022/08/31 00:55:57;;;;;;;0.20;0.20;;;18.50;51.20;;;;;;4895719;29;20220;-33
2022/08/31 00:58:29;;;;;;;0.40;0.40;;;18.50;51.10;;;;;;4894959;29;20205;-33
2022/08/31 01:01:01;;;;;;;0.28;0.28;;;18.60;51.10;;;;;;4895511;29;20201;-35
2022/08/31 01:03:33;;;;;;;0.30;0.30;;;18.60;51.10;;;;;;4902061;29;20199;-33
2022/08/31 01:06:05;;;;;;;0.75;0.30;;;18.60;51.00;;;;;;4904796;29;20279;-36
2022/08/31 01:08:36;;;;;;;0.40;0.40;;;18.60;51.00;;;;;;4886996;29;20565;-33
2022/08/31 01:11:06;;;;;;;0.25;0.25;;;18.70;51.00;;;;;;4887140;29;20205;-34
2022/08/31 01:13:37;;;;;;;0.30;0.30;;;18.70;51.00;;;;;;4891615;29;20222;-33
2022/08/31 01:16:11;;;;;;;1.20;0.40;;;18.70;50.90;;;;;;4895356;29;20212;-37
2022/08/31 01:18:45;;;;;;;2.75;0.40;;;18.70;50.90;;;;;;4901270;29;20678;-33
2022/08/31 01:21:26;;;;;;;1.17;0.20;;;18.80;50.90;;;;;;4914349;29;20204;-32
2022/08/31 01:24:01;;;;;;;0.70;0.28;;;18.80;50.90;;;;;;4901889;29;20236;-33
2022/08/31 01:26:34;;;;;;;0.20;0.20;;;18.80;50.80;;;;;;4893843;29;20228;-33
2022/08/31 01:29:07;;;;;;;0.20;0.20;;;18.80;50.70;;;;;;4895072;29;20212;-33
2022/08/31 01:31:40;;;;;;;0.30;0.30;;;18.90;50.60;;;;;;4901004;29;20201;-33
2022/08/31 01:34:11;;;;;;;0.30;0.30;;;18.90;50.60;;;;;;4907688;29;20220;-33
2022/08/31 01:36:44;;;;;;;0.45;0.30;;;19.00;50.70;;;;;;4914396;29;20204;-33
2022/08/31 01:39:17;;;;;;;0.20;0.20;;;19.00;50.60;;;;;;4899582;29;20268;-33
2022/08/31 01:41:48;;;;;;;0.35;0.20;;;19.00;50.50;;;;;;4894570;29;20200;-33
2022/08/31 01:44:20;;;;;;;0.40;0.20;;;19.10;50.60;;;;;;4908662;23;20707;-37
2022/08/31 01:46:52;;;;;;;0.30;0.20;;;19.10;50.50;;;;;;4910673;29;20231;-49
2022/08/31 01:49:24;;;;;;;0.20;0.20;;;19.20;50.40;;;;;;4899090;29;20209;-57
2022/08/31 01:51:56;;;;;;;0.20;0.20;;;19.20;50.40;;;;;;4895332;29;20204;-45
2022/08/31 01:54:28;;;;;;;2.63;0.40;;;19.20;50.20;;;;;;4894566;29;20232;-37
2022/08/31 01:57:00;;;;;;;0.20;0.20;;;19.30;50.20;;;;;;4894942;29;20201;-55
2022/08/31 01:59:31;;;;;;;0.20;0.20;;;19.30;50.10;;;;;;4894452;29;20729;-42
2022/08/31 02:02:02;;;;;;;0.20;0.20;;;19.40;50.00;;;;;;4894363;29;20213;-40
2022/08/31 02:04:33;;;;;;;2.13;0.25;;;19.40;49.90;;;;;;4895067;29;20216;-38
2022/08/31 02:07:04;;;;;;;0.28;0.28;;;19.50;49.90;;;;;;4894815;29;20724;-49
2022/08/31 02:09:37;;;;;;;1.35;0.30;;;19.50;49.80;;;;;;4894935;29;20562;-53
2022/08/31 02:12:08;;;;;;;1.45;0.20;;;19.60;49.80;;;;;;4893503;29;20201;-35
2022/08/31 02:14:38;;;;;;;0.10;0.10;;;19.60;49.60;;;;;;4894463;29;20225;-45
2022/08/31 02:17:09;;;;;;;0.30;0.30;;;19.70;49.50;;;;;;4894652;29;20205;-53
2022/08/31 02:19:40;;;;;;;0.13;0.13;;;19.70;49.20;;;;;;4894319;29;20197;-55
2022/08/31 02:22:11;;;;;;;0.30;0.20;;;19.70;49.20;;;;;;4895116;29;20201;-53
2022/08/31 02:24:43;;;;;;;0.17;0.13;;;19.80;49.10;;;;;;4897082;29;20213;-50
2022/08/31 02:27:14;;;;;;;0.63;0.30;;;19.80;49.00;;;;;;4898358;29;20241;-44
2022/08/31 02:29:45;;;;;;;0.22;0.22;;;19.90;49.00;;;;;;4897948;29;20239;-51
2022/08/31 02:32:15;;;;;;;0.60;0.20;;;19.90;48.90;;;;;;4897999;29;20691;-56
2022/08/31 02:34:46;;;;;;;0.22;0.22;;;19.90;48.80;;;;;;4898048;29;20229;-54
2022/08/31 02:37:20;;;;;;;0.47;0.20;;;20.00;48.80;;;;;;4897405;29;20741;-41
2022/08/31 02:39:52;;;;;;;0.63;0.20;;;20.00;48.70;;;;;;4898579;29;20834;-54
2022/08/31 02:42:23;;;;;;;1.02;0.30;;;20.10;48.60;;;;;;4884151;29;20213;-47
2022/08/31 02:44:54;;;;;;;0.65;0.20;;;20.10;48.70;;;;;;4894305;29;20308;-43
2022/08/31 02:47:26;;;;;;;0.50;0.30;;;20.20;48.60;;;;;;4897939;29;20225;-57
2022/08/31 02:49:56;;;;;;;0.88;0.40;;;20.20;48.60;;;;;;4898410;29;20204;-52
2022/08/31 02:52:27;;;;;;;0.20;0.20;;;20.20;48.50;;;;;;4897861;29;20688;-45
2022/08/31 02:55:00;;;;;;;0.30;0.28;;;20.20;48.50;;;;;;4898469;29;20232;-47
2022/08/31 02:57:30;;;;;;;0.40;0.22;;;20.30;49.10;;;;;;4897416;29;20197;-53
2022/08/31 03:00:01;;;;;;;1.20;0.30;;;20.30;49.50;;;;;;4897740;29;20208;-42
2022/08/31 03:02:32;;;;;;;0.20;0.20;;;20.30;49.60;;;;;;4886062;29;20205;-45
2022/08/31 03:05:06;;;;;;;0.38;0.30;;;20.40;49.50;;;;;;4893501;29;20224;-38
2022/08/31 03:07:37;;;;;;;2.40;0.30;;;20.40;49.20;;;;;;4897203;29;20220;-51
2022/08/31 03:10:13;;;;;;;0.30;0.20;;;20.40;48.80;;;;;;4897870;29;20208;-45
2022/08/31 03:12:44;;;;;;;0.55;0.28;;;20.50;48.40;;;;;;4897178;29;20216;-41
2022/08/31 03:15:15;;;;;;;2.03;0.25;;;20.50;48.20;;;;;;4897150;29;20573;-40
2022/08/31 03:17:45;;;;;;;0.43;0.30;;;20.50;47.90;;;;;;4897458;29;20209;-38
2022/08/31 03:20:17;;;;;;;1.05;0.30;;;20.50;47.90;;;;;;4897401;29;20207;-48
2022/08/31 03:22:48;;;;;;;1.67;0.30;;;20.60;47.90;;;;;;4897569;29;20208;-41
2022/08/31 03:25:21;;;;;;;0.52;0.32;;;20.60;47.90;;;;;;4897294;29;20220;-52
2022/08/31 03:27:52;;;;;;;0.30;0.30;;;20.60;47.80;;;;;;4897713;29;20307;-40
2022/08/31 03:30:24;;;;;;;0.35;0.30;;;20.60;47.70;;;;;;4897240;29;20204;-40
2022/08/31 03:32:54;;;;;;;0.43;0.28;;;20.60;47.70;;;;;;4897385;29;20201;-52
2022/08/31 03:35:25;;;;;;;0.77;0.30;;;20.70;47.70;;;;;;4896392;29;20236;-35
2022/08/31 03:37:56;;;;;;;0.95;0.30;;;20.70;47.70;;;;;;4897547;29;20296;-37
2022/08/31 03:40:28;;;;;;;0.85;0.30;;;20.70;47.60;;;;;;4897580;29;20701;-47
2022/08/31 03:42:59;;;;;;;0.38;0.30;;;20.70;47.50;;;;;;4897035;29;20212;-46
2022/08/31 03:45:30;;;;;;;0.20;0.20;;;20.70;47.40;;;;;;4914131;29;20704;-54
2022/08/31 03:48:05;;;;;;;0.50;0.30;;;20.80;47.40;;;;;;4906580;29;20697;-35
2022/08/31 03:50:35;;;;;;;1.35;0.30;;;20.80;47.20;;;;;;4914124;29;20200;-55
2022/08/31 03:53:07;;;;;;;0.22;0.20;;;20.80;47.10;;;;;;4915938;29;20200;-37
2022/08/31 03:55:42;;;;;;;1.27;0.45;;;20.80;47.10;;;;;;4915210;29;20227;-37
2022/08/31 03:58:14;;;;;;;0.25;0.20;;;20.80;47.00;;;;;;4903703;29;20208;-34
2022/08/31 04:00:46;;;;;;;1.30;0.40;;;20.90;47.10;;;;;;4908100;29;20200;-42
2022/08/31 04:03:16;;;;;;;0.55;0.50;;;20.90;47.00;;;;;;4915470;29;20204;-35
2022/08/31 04:05:47;;;;;;;0.30;0.30;;;20.90;47.00;;;;;;4894894;29;20237;-48
2022/08/31 04:08:19;;;;;;;0.30;0.20;;;20.90;46.90;;;;;;4884228;29;20401;-46
2022/08/31 04:10:53;;;;;;;0.30;0.20;;;20.90;46.70;;;;;;4896133;29;20197;-56
2022/08/31 04:13:24;;;;;;;0.28;0.28;;;21.00;46.70;;;;;;4896174;29;20203;-36
2022/08/31 04:15:55;;;;;;;0.30;0.30;;;21.00;46.60;;;;;;4895546;29;20205;-52
2022/08/31 04:18:25;;;;;;;0.95;0.30;;;21.00;46.50;;;;;;4895860;29;20208;-54
2022/08/31 04:20:56;;;;;;;0.68;0.32;;;21.00;46.40;;;;;;4896317;29;20201;-53
2022/08/31 04:23:28;;;;;;;0.20;0.20;;;21.00;46.30;;;;;;4896833;29;20193;-45
2022/08/31 04:26:01;;;;;;;0.30;0.30;;;21.00;46.30;;;;;;4895957;29;20205;-56
2022/08/31 04:28:32;;;;;;;0.45;0.30;;;21.10;46.40;;;;;;4896404;29;20235;-52
2022/08/31 04:31:07;;;;;;;0.40;0.30;;;21.10;46.40;;;;;;4895654;29;20201;-45
2022/08/31 04:33:39;;;;;;;1.50;0.40;;;21.10;46.50;;;;;;4887387;29;20197;-41
2022/08/31 04:36:11;;;;;;;0.20;0.20;;;21.10;46.40;;;;;;4895618;29;20201;-35
2022/08/31 04:38:44;;;;;;;0.45;0.35;;;21.10;46.20;;;;;;4895706;29;20205;-35
2022/08/31 04:41:18;;;;;;;0.63;0.40;;;21.20;46.10;;;;;;4895901;29;20205;-46
2022/08/31 04:51:44;;;;;;;1.67;0.32;;;21.20;46.30;;;;;;5224552;23;20223;-42
2022/08/31 04:54:20;;;;;;;0.40;0.32;;;21.20;46.30;;;;;;4911810;29;20212;-40
2022/08/31 04:56:53;;;;;;;0.57;0.40;;;21.20;46.30;;;;;;4911998;29;20594;-35
2022/08/31 04:59:26;;;;;;;0.70;0.30;;;21.20;46.40;;;;;;4899044;29;20196;-35
2022/08/31 05:01:57;;;;;;;1.73;0.40;;;21.20;46.40;;;;;;4911991;29;20299;-34
2022/08/31 05:04:28;;;;;;;0.30;0.30;;;21.20;46.50;;;;;;4901973;29;20227;-34
2022/08/31 05:06:59;;;;;;;1.20;0.40;;;21.20;46.70;;;;;;4913342;29;20220;-34
2022/08/31 05:09:29;;;;;;;1.15;0.38;;;21.30;46.90;;;;;;4903170;29;20196;-34
2022/08/31 05:12:02;;;;;;;1.35;0.30;;;21.30;47.00;;;;;;4897593;29;20197;-38
2022/08/31 05:14:34;;;;;;;0.73;0.30;;;21.30;47.20;;;;;;4899040;29;20232;-34
2022/08/31 05:17:05;;;;;;;0.70;0.40;;;21.30;47.30;;;;;;4913759;29;20196;-34
2022/08/31 05:19:35;;;;;;;0.68;0.35;;;21.30;47.20;;;;;;4913608;29;20196;-34
2022/08/31 05:22:06;;;;;;;0.45;0.30;;;21.20;47.30;;;;;;4894557;29;20216;-34
2022/08/31 05:24:37;;;;;;;0.20;0.10;;;21.30;47.50;;;;;;4899741;29;20580;-34
2022/08/31 05:27:10;;;;;;;0.90;0.30;;;21.20;47.40;;;;;;4912965;29;20699;-39
2022/08/31 05:29:41;;;;;;;0.98;0.30;;;21.20;47.40;;;;;;4912453;29;20200;-34
2022/08/31 05:32:11;;;;;;;0.68;0.30;;;21.20;47.50;;;;;;4913640;29;20211;-34
2022/08/31 05:34:42;;;;;;;0.30;0.20;;;21.20;47.70;;;;;;4913391;29;20216;-34
2022/08/31 05:37:13;;;;;;;0.55;0.40;;;21.20;47.60;;;;;;4914098;29;20707;-35
2022/08/31 05:39:44;;;;;;;0.60;0.30;;;21.20;47.60;;;;;;4900287;29;20233;-34
2022/08/31 05:42:16;;;;;;;0.20;0.20;;;21.20;47.40;;;;;;4914130;29;20211;-33
2022/08/31 06:44:52;;;;;;;0.40;0.40;;;20.40;47.90;;;;;;5670560;23;20219;-33
2022/08/31 06:47:30;;;;;;;0.30;0.30;;;20.40;47.90;;;;;;4934556;28;20227;-33
2022/08/31 06:50:01;;;;;;;0.52;0.45;;;20.40;48.00;;;;;;4934943;28;20270;-40
2022/08/31 06:52:32;;;;;;;0.43;0.40;;;20.40;48.10;;;;;;4935355;29;20243;-37
2022/08/31 06:55:03;;;;;;;0.57;0.30;;;20.30;48.10;;;;;;4924478;29;20208;-34
2022/08/31 06:57:34;;;;;;;0.82;0.30;;;20.30;48.20;;;;;;4916274;29;20692;-33
2022/08/31 07:00:08;;;;;;;0.55;0.30;;;20.30;48.30;;;;;;4916703;29;20195;-33
2022/08/31 07:02:38;;;;;;;0.50;0.50;;;20.20;48.40;;;;;;4934884;29;20620;-33
2022/08/31 07:05:10;;;;;;;0.30;0.20;;;20.20;48.40;;;;;;4916522;29;20242;-35
2022/08/31 07:07:40;;;;;;;0.30;0.30;;;20.20;48.40;;;;;;4914062;29;20228;-35
2022/08/31 07:10:11;;;;;;;0.93;0.50;;;20.20;48.50;;;;;;4913719;29;20232;-33
2022/08/31 07:12:42;;;;;;;0.80;0.45;;;20.20;48.50;;;;;;4913920;29;20211;-33
2022/08/31 07:15:15;;;;;;;0.55;0.32;;;20.10;48.50;;;;;;4913815;29;20232;-33
2022/08/31 07:17:46;;;;;;;0.50;0.35;;;20.10;48.60;;;;;;4914133;29;20227;-33
2022/08/31 07:20:17;;;;;;;0.50;0.40;;;20.10;48.70;;;;;;4915541;29;20602;-34
2022/08/31 07:22:48;;;;;;;0.30;0.30;;;20.00;48.70;;;;;;4915402;29;20200;-41
2022/08/31 07:25:19;;;;;;;0.50;0.30;;;20.00;48.70;;;;;;4915360;29;20224;-35
2022/08/31 07:27:54;;;;;;;0.32;0.20;;;20.00;48.70;;;;;;4915161;29;20288;-35
2022/08/31 07:30:27;;;;;;;0.65;0.30;;;19.90;48.70;;;;;;4915319;29;20196;-32
2022/08/31 07:32:57;;;;;;;0.40;0.40;;;19.90;48.90;;;;;;4915188;29;20228;-35
2022/08/31 07:35:28;;;;;;;1.10;0.40;;;19.90;48.90;;;;;;4915076;29;20224;-33
2022/08/31 07:46:16;;;;;;;0.68;0.28;;;19.80;49.10;;;;;;4875097;29;20258;-36
2022/08/31 07:48:47;;;;;;;0.38;0.38;;;19.80;49.10;;;;;;4877339;29;20234;-44
2022/08/31 07:51:22;;;;;;;1.15;0.30;;;19.80;49.20;;;;;;4877588;29;20205;-35
2022/08/31 07:53:52;;;;;;;0.85;0.30;;;19.80;49.20;;;;;;4877409;29;20216;-37
2022/08/31 07:56:24;;;;;;;0.47;0.47;;;19.70;49.20;;;;;;4877148;29;20206;-37
2022/08/31 07:58:55;;;;;;;0.38;0.38;;;19.70;49.30;;;;;;4877102;29;20577;-37
2022/08/31 08:01:31;;;;;;;0.70;0.30;;;19.70;49.40;;;;;;4876790;29;20209;-40
2022/08/31 08:04:01;;;;;;;0.20;0.20;;;19.70;49.50;;;;;;4876980;29;20285;-46
2022/08/31 08:06:32;;;;;;;1.30;0.52;;;19.60;49.40;;;;;;4877102;29;20201;-37
2022/08/31 08:09:06;;;;;;;0.50;0.30;;;19.60;49.40;;;;;;4876521;29;20590;-38
2022/08/31 08:11:37;;;;;;;0.30;0.30;;;19.60;49.40;;;;;;4876602;29;20197;-37
2022/08/31 08:14:08;;;;;;;0.30;0.30;;;19.60;49.60;;;;;;4876570;29;20228;-43
2022/08/31 08:16:41;;;;;;;0.20;0.20;;;19.60;49.60;;;;;;4875937;29;20194;-36
2022/08/31 08:19:12;;;;;;;0.20;0.20;;;19.60;49.60;;;;;;4876576;29;20215;-46
2022/08/31 08:21:44;;;;;;;0.30;0.30;;;19.50;49.60;;;;;;4875602;29;20213;-37
2022/08/31 08:24:16;;;;;;;0.20;0.20;;;19.50;49.70;;;;;;4876242;29;20231;-47
2022/08/31 08:26:49;;;;;;;0.30;0.28;;;19.50;49.70;;;;;;4876738;29;20684;-46
2022/08/31 08:29:20;;;;;;;0.70;0.40;;;19.50;49.70;;;;;;4876743;29;20233;-36
2022/08/31 08:31:53;;;;;;;0.60;0.40;;;19.50;49.80;;;;;;4876319;29;20233;-34
2022/08/31 08:34:25;;;;;;;0.55;0.45;;;19.40;49.80;;;;;;4875552;29;20217;-47
2022/08/31 08:36:56;;;;;;;0.30;0.30;;;19.40;49.80;;;;;;4876589;29;20205;-40
2022/08/31 08:39:27;;;;;;;0.30;0.30;;;19.40;49.80;;;;;;4876133;29;20216;-43
2022/08/31 08:41:58;;;;;;;0.30;0.30;;;19.40;49.80;;;;;;4876392;29;20204;-40
2022/08/31 08:44:32;;;;;;;0.30;0.30;;;19.40;49.90;;;;;;4911669;23;20234;-42
2022/08/31 08:47:07;;;;;;;0.38;0.38;;;19.40;50.00;;;;;;4931772;29;20294;-34
2022/08/31 08:49:44;;;;;;;0.55;0.50;;;19.30;50.00;;;;;;4932412;29;20226;-37
2022/08/31 08:52:18;;;;;;;0.32;0.32;;;19.30;50.00;;;;;;4932333;29;20663;-34
2022/08/31 08:54:50;;;;;;;0.50;0.30;;;19.30;50.10;;;;;;4924065;29;20216;-34
2022/08/31 08:57:23;;;;;;;0.30;0.30;;;19.30;50.10;;;;;;4914041;29;20648;-33
2022/08/31 08:59:58;;;;;;;0.47;0.38;;;19.30;50.10;;;;;;4910309;29;20211;-35
2022/08/31 09:02:36;;;;;;;0.60;0.32;;;19.20;50.10;;;;;;4905876;29;20192;-34
2022/08/31 09:05:33;;;;;;;0.20;0.20;;;19.20;50.20;;;;;;4894044;29;20220;-40
2022/08/31 09:08:22;;;;;;;0.30;0.30;;;19.20;50.20;;;;;;4898688;29;20290;-35
2022/08/31 09:11:05;;;;;;;0.30;0.30;;;19.20;50.20;;;;;;4913267;29;20196;-38
2022/08/31 09:13:47;;;;;;;0.40;0.40;;;19.20;50.20;;;;;;4913487;29;20204;-41
2022/08/31 09:16:32;;;;;;;0.20;0.20;;;19.10;50.20;;;;;;4913545;29;20204;-34
2022/08/31 09:19:07;;;;;;;0.20;0.20;;;19.10;50.30;;;;;;4894331;29;20265;-37
2022/08/31 09:21:40;;;;;;;0.40;0.40;;;19.10;50.30;;;;;;4894585;29;20196;-39
2022/08/31 09:24:13;;;;;;;0.75;0.50;;;19.10;50.40;;;;;;4912046;29;20223;-40
2022/08/31 09:26:55;;;;;;;0.47;0.40;;;19.10;50.50;;;;;;4914400;29;20192;-45
2022/08/31 09:29:28;;;;;;;0.30;0.30;;;19.00;50.50;;;;;;4895193;29;20236;-34
2022/08/31 09:32:06;;;;;;;0.47;0.40;;;19.00;50.50;;;;;;4916989;29;20200;-38
2022/08/31 09:34:40;;;;;;;0.40;0.40;;;19.00;50.60;;;;;;4912490;29;20271;-38
2022/08/31 09:37:17;;;;;;;0.30;0.30;;;19.00;50.60;;;;;;4914393;29;20200;-38
2022/08/31 09:39:48;;;;;;;0.30;0.30;;;19.00;50.60;;;;;;4900945;29;20207;-41
2022/08/31 09:42:32;;;;;;;0.52;0.28;;;19.00;50.60;;;;;;4913862;29;20199;-40
2022/08/31 09:45:08;;;;;;;0.40;0.40;;;19.00;50.60;;;;;;4949170;23;20244;-42
2022/08/31 09:47:52;;;;;;;0.63;0.40;;;19.00;50.70;;;;;;4889059;29;20685;-56
2022/08/31 09:50:36;;;;;;;0.38;0.38;;;18.90;50.70;;;;;;4894577;29;20205;-55
2022/08/31 09:56:12;;;;;;;0.32;0.32;;;18.90;50.70;;;;;;4877688;29;20224;-55
2022/08/31 09:58:45;;;;;;;0.50;0.30;;;18.90;50.80;;;;;;4876598;29;20228;-51
2022/08/31 10:01:36;;;;;;;0.38;0.30;;;18.90;51.40;;;;;;4875656;29;20205;-50
2022/08/31 10:04:24;;;;;;;0.40;0.22;;;18.80;50.80;;;;;;4875486;29;20233;-52
2022/08/31 10:07:06;;;;;;;0.40;0.30;;;18.80;50.80;;;;;;4875010;29;20194;-43
2022/08/31 10:09:45;;;;;;;0.30;0.30;;;18.80;50.90;;;;;;4875688;29;20614;-42
2022/08/31 10:12:22;;;;;;;0.30;0.30;;;18.80;50.90;;;;;;4875660;29;20209;-44
2022/08/31 10:15:02;;;;;;;0.20;0.20;;;18.80;50.90;;;;;;4875422;29;20929;-35
2022/08/31 10:17:37;;;;;;;0.38;0.38;;;18.80;50.90;;;;;;4876174;29;20284;-45
2022/08/31 10:20:14;;;;;;;0.20;0.20;;;18.80;50.90;;;;;;4875784;29;20203;-45
2022/08/31 10:22:51;;;;;;;0.98;0.40;;;18.70;51.00;;;;;;4874911;29;20262;-37
2022/08/31 10:25:29;;;;;;;0.52;0.52;;;18.70;51.00;;;;;;4875242;29;20224;-36
2022/08/31 10:28:10;;;;;;;0.30;0.30;;;18.70;51.00;;;;;;4875267;29;20725;-47
2022/08/31 10:30:49;;;;;;;0.50;0.30;;;18.70;51.00;;;;;;4874274;29;20221;-50
2022/08/31 10:33:21;;;;;;;1.02;0.50;;;18.70;51.10;;;;;;4875240;29;20204;-52
2022/08/31 10:35:56;;;;;;;0.90;0.52;;;18.70;51.10;;;;;;4874885;29;20710;-47
2022/08/31 10:38:35;;;;;;;0.20;0.20;;;18.70;51.10;;;;;;4875333;29;20347;-55
2022/08/31 10:41:13;;;;;;;0.40;0.40;;;18.60;51.10;;;;;;4875407;29;20205;-47
2022/08/31 10:43:54;;;;;;;0.38;0.38;;;18.70;51.10;;;;;;4857485;29;20202;-46
2022/08/31 10:46:25;;;;;;;0.30;0.30;;;18.70;51.10;;;;;;4877305;29;20240;-54
2022/08/31 10:48:58;;;;;;;0.40;0.40;;;18.60;51.00;;;;;;4879158;29;20233;-54
2022/08/31 10:51:42;;;;;;;0.47;0.40;;;18.60;51.10;;;;;;4878609;29;20625;-54
2022/08/31 10:54:32;;;;;;;0.60;0.60;;;18.60;51.20;;;;;;4878885;29;20233;-49
2022/08/31 10:57:18;;;;;;;0.43;0.43;;;18.50;51.20;;;;;;4878908;29;20241;-49
2022/08/31 10:59:56;;;;;;;0.47;0.47;;;18.50;51.20;;;;;;4878168;29;20197;-55
2022/08/31 11:02:45;;;;;;;0.50;0.50;;;18.50;51.20;;;;;;4879112;29;20197;-52
2022/08/31 11:05:28;;;;;;;0.40;0.40;;;18.50;51.30;;;;;;4878992;29;20233;-53
2022/08/31 11:08:09;;;;;;;0.73;0.40;;;18.50;51.30;;;;;;4879125;29;20254;-52
2022/08/31 11:10:50;;;;;;;0.40;0.40;;;18.50;51.30;;;;;;4878663;29;20681;-49
2022/08/31 11:13:41;;;;;;;0.50;0.50;;;18.50;51.30;;;;;;4879446;29;20216;-54
2022/08/31 11:16:31;;;;;;;0.88;0.40;;;18.50;51.30;;;;;;4878557;29;20248;-46
2022/08/31 11:19:38;;;;;;;0.50;0.45;;;18.50;51.20;;;;;;4878892;29;20209;-52
2022/08/31 11:22:33;;;;;;;0.47;0.38;;;18.50;51.30;;;;;;4878893;29;20225;-52
2022/08/31 11:25:35;;;;;;;0.40;0.40;;;18.40;51.30;;;;;;4878925;29;20308;-50
2022/08/31 11:28:11;;;;;;;0.60;0.52;;;18.40;51.30;;;;;;4878217;29;20197;-50
2022/08/31 11:30:48;;;;;;;0.47;0.47;;;18.40;51.30;;;;;;4878388;29;20205;-49
2022/08/31 11:33:24;;;;;;;0.95;0.40;;;18.40;51.40;;;;;;4889400;29;20690;-42
2022/08/31 11:36:09;;;;;;;0.50;0.40;;;18.40;51.40;;;;;;4896973;29;20232;-48
2022/08/31 11:38:53;;;;;;;0.25;0.25;;;18.30;51.40;;;;;;4887303;29;20201;-51
2022/08/31 11:41:41;;;;;;;0.40;0.40;;;18.40;51.40;;;;;;4896696;29;20272;-54
2022/08/31 11:44:52;;;;;;;0.40;0.40;;;18.40;51.50;;;;;;4878168;29;20237;-49
2022/08/31 11:47:38;;;;;;;0.40;0.40;;;18.40;51.50;;;;;;4879101;29;20204;-41
2022/08/31 11:50:34;;;;;;;0.70;0.40;;;18.40;51.40;;;;;;4877151;29;20313;-37
2022/08/31 11:53:24;;;;;;;0.30;0.30;;;18.30;51.40;;;;;;4876739;29;20662;-41
2022/08/31 11:55:58;;;;;;;0.40;0.40;;;18.30;51.50;;;;;;4876633;29;20222;-40
2022/08/31 11:58:34;;;;;;;0.45;0.40;;;18.30;51.50;;;;;;4877053;29;20259;-38
2022/08/31 12:01:30;;;;;;;0.40;0.40;;;18.30;51.60;;;;;;4876704;29;20721;-41
2022/08/31 12:04:04;;;;;;;0.35;0.35;;;18.20;51.60;;;;;;4876917;29;20662;-41
2022/08/31 12:07:02;;;;;;;0.43;0.40;;;18.30;51.60;;;;;;4877059;29;20261;-36
2022/08/31 12:10:02;;;;;;;0.45;0.45;;;18.30;51.70;;;;;;4876836;29;20346;-38
2022/08/31 12:12:44;;;;;;;0.30;0.30;;;18.20;51.60;;;;;;4877076;29;20206;-40
2022/08/31 12:15:22;;;;;;;0.43;0.40;;;18.30;51.60;;;;;;4876617;29;20232;-39
2022/08/31 12:18:09;;;;;;;0.30;0.30;;;18.20;51.60;;;;;;4876094;29;20208;-49
2022/08/31 12:23:54;;;;;;;0.50;0.45;;;18.20;51.60;;;;;;4876606;29;20722;-36
2022/08/31 12:26:48;;;;;;;0.35;0.35;;;18.20;51.70;;;;;;4876541;29;20209;-38
2022/08/31 12:29:31;;;;;;;0.40;0.40;;;18.20;51.70;;;;;;4876284;29;20605;-35
2022/08/31 12:32:28;;;;;;;0.40;0.40;;;18.20;51.80;;;;;;4876692;29;20198;-38
2022/08/31 12:35:13;;;;;;;0.40;0.40;;;18.10;51.70;;;;;;4876345;29;20221;-47
2022/08/31 12:37:44;;;;;;;0.30;0.30;;;18.10;51.80;;;;;;4876253;29;20216;-35
2022/08/31 12:40:18;;;;;;;0.43;0.40;;;18.10;51.80;;;;;;4875622;29;20194;-45
2022/08/31 12:43:11;;;;;;;0.40;0.40;;;18.10;51.90;;;;;;4876338;29;20207;-41
2022/08/31 12:46:19;;;;;;;0.30;0.30;;;18.10;52.40;;;;;;4873035;29;20244;-42
2022/08/31 12:49:15;;;;;;;0.40;0.40;;;18.10;51.80;;;;;;4854974;29;20233;-49
2022/08/31 12:51:55;;;;;;;0.40;0.40;;;18.10;51.70;;;;;;4855859;29;20202;-41
2022/08/31 12:55:01;;;;;;;0.35;0.35;;;18.10;51.80;;;;;;4857548;29;20607;-36
2022/08/31 12:57:57;;;;;;;0.40;0.40;;;18.10;51.90;;;;;;4857344;29;20213;-52
2022/08/31 13:00:30;;;;;;;0.45;0.45;;;18.10;51.90;;;;;;4867096;29;20217;-42
2022/08/31 13:03:02;;;;;;;0.40;0.40;;;18.00;51.80;;;;;;4874950;29;20202;-35
2022/08/31 13:05:35;;;;;;;0.45;0.45;;;18.00;51.90;;;;;;4875729;29;20261;-42
2022/08/31 13:08:22;;;;;;;0.50;0.40;;;18.00;52.00;;;;;;4875374;29;20206;-39
2022/08/31 13:10:53;;;;;;;0.45;0.45;;;18.00;52.00;;;;;;4875784;29;20233;-44
2022/08/31 13:13:26;;;;;;;0.40;0.40;;;18.00;52.00;;;;;;4875630;29;20705;-45
2022/08/31 13:16:03;;;;;;;0.40;0.38;;;18.00;51.90;;;;;;4868129;29;20230;-44
2022/08/31 13:18:34;;;;;;;0.40;0.40;;;18.00;52.00;;;;;;4857586;29;20562;-46
2022/08/31 13:21:06;;;;;;;0.50;0.40;;;18.00;51.90;;;;;;4857280;29;20203;-46
2022/08/31 13:23:41;;;;;;;0.73;0.30;;;18.00;51.90;;;;;;4856930;29;20206;-50
2022/08/31 13:26:21;;;;;;;0.40;0.40;;;18.00;52.00;;;;;;4857254;29;20354;-40
2022/08/31 13:28:54;;;;;;;0.40;0.40;;;18.00;52.00;;;;;;4857119;29;20241;-43
2022/08/31 13:31:27;;;;;;;0.30;0.30;;;18.00;52.00;;;;;;4872870;29;20669;-41
2022/08/31 13:34:02;;;;;;;0.40;0.40;;;17.90;52.00;;;;;;4875417;29;20229;-43
2022/08/31 13:36:38;;;;;;;0.38;0.30;;;17.90;52.00;;;;;;4875577;29;20201;-42
2022/08/31 13:39:17;;;;;;;0.35;0.30;;;17.90;52.10;;;;;;4875279;29;20201;-40
2022/08/31 13:42:04;;;;;;;0.38;0.38;;;17.90;52.10;;;;;;4875696;29;20201;-50
2022/08/31 13:44:38;;;;;;;0.35;0.35;;;17.90;52.10;;;;;;4876968;29;20712;-41
2022/08/31 13:47:17;;;;;;;0.40;0.40;;;17.90;52.10;;;;;;4894835;29;20201;-49
2022/08/31 13:49:52;;;;;;;0.40;0.40;;;17.90;52.00;;;;;;4894131;29;20239;-42
2022/08/31 13:52:26;;;;;;;0.50;0.40;;;17.90;52.00;;;;;;4894248;29;20496;-36
2022/08/31 13:55:10;;;;;;;0.20;0.20;;;17.90;52.00;;;;;;4893980;29;20216;-49
2022/08/31 13:57:41;;;;;;;0.30;0.30;;;17.90;52.10;;;;;;4894091;29;20197;-49
2022/08/31 14:00:35;;;;;;;0.40;0.35;;;17.90;52.10;;;;;;4888643;29;20806;-34
2022/08/31 14:03:33;;;;;;;0.35;0.35;;;17.80;52.10;;;;;;4875180;29;20270;-48
2022/08/31 14:06:27;;;;;;;0.40;0.40;;;17.80;52.20;;;;;;4875258;29;20225;-49
2022/08/31 14:09:02;;;;;;;0.40;0.40;;;17.80;52.20;;;;;;4875421;29;20698;-49
2022/08/31 14:11:35;;;;;;;0.40;0.38;;;17.80;52.20;;;;;;4875021;29;20205;-43
2022/08/31 14:14:08;;;;;;;0.38;0.38;;;17.80;52.20;;;;;;4874874;29;20205;-47
2022/08/31 14:16:41;;;;;;;0.38;0.38;;;17.80;52.20;;;;;;4874279;29;20652;-35
2022/08/31 14:19:12;;;;;;;0.30;0.30;;;17.80;52.20;;;;;;4875166;29;20244;-44
2022/08/31 14:21:45;;;;;;;0.30;0.30;;;17.80;52.20;;;;;;4878411;29;20681;-41
2022/08/31 14:24:16;;;;;;;0.45;0.32;;;17.80;52.10;;;;;;4878627;29;20232;-45
2022/08/31 14:26:49;;;;;;;0.40;0.40;;;17.80;52.20;;;;;;4878449;29;20212;-39
2022/08/31 14:29:20;;;;;;;0.38;0.38;;;17.80;52.20;;;;;;4878441;29;20226;-40
2022/08/31 14:31:52;;;;;;;0.40;0.40;;;17.80;52.20;;;;;;4878284;29;20213;-39
2022/08/31 14:34:28;;;;;;;0.30;0.30;;;17.80;52.30;;;;;;4878087;29;20229;-41
2022/08/31 14:37:05;;;;;;;0.30;0.30;;;17.70;52.30;;;;;;4878639;29;20232;-36
2022/08/31 14:39:37;;;;;;;0.28;0.28;;;17.70;52.30;;;;;;4878455;29;20293;-47
2022/08/31 14:42:15;;;;;;;0.32;0.32;;;17.70;52.30;;;;;;4878096;29;20254;-42
2022/08/31 14:44:52;;;;;;;0.35;0.35;;;17.70;52.30;;;;;;4878528;29;20265;-35
2022/08/31 14:47:27;;;;;;;0.30;0.30;;;17.70;52.30;;;;;;4875184;23;20198;-40
2022/08/31 14:50:04;;;;;;;0.40;0.35;;;17.70;52.30;;;;;;4896769;29;20236;-34
2022/08/31 14:52:35;;;;;;;0.35;0.30;;;17.70;52.30;;;;;;4896632;29;20222;-34
2022/08/31 14:55:07;;;;;;;0.40;0.40;;;17.70;52.20;;;;;;4886998;29;20796;-34
2022/08/31 14:57:42;;;;;;;0.30;0.30;;;17.70;52.30;;;;;;4877801;29;20198;-34
2022/08/31 15:00:17;;;;;;;0.40;0.40;;;17.70;52.30;;;;;;4877420;29;20260;-34